Chippewa Falls, WI

8:08 PM CDT on April 19, 2015 (GMT -0500)
Lake Wissota | | Change Station
CLOSE
Current Station
Personal Weather Station
Location: Chippewa Falls, WI
Elevation: 925 ft
Nearby Weather Stations

Elev 925 ft 44.98 °N, 91.34 °W | Updated 0 second ago

Rain
Rain
50.0 °F
Feels Like 49 °F
N
3.5
Wind Variable Wind from NW
Gusts 3.5 mph

Today
High -- | Low -- °F
--% Chance of Precip.
Yesterday
High -- | Low -- °F
Precip. -- in
6:14 AM 7:55 PM
New Moon, 2% visible
Pressure 29.53 in
Visibility 6.0 miles
Clouds Few 700 ft
Scattered Clouds 1400 ft
Overcast 4100 ft
Windchill 49 °F
Dew Point 49 °F
Humidity 97%
Rainfall 0.33 in
Snow Depth Not available.
UV 0 out of 12
Pollen 5.10 out of 12
Air Quality Not available.
Flu Activity Local Activity
METAR KEAU 200056Z 27005KT 6SM -RA BR FEW007 SCT014 OVC041 10/09 A2952 RMK AO2 SLP998 P0004 T01000089

More Conditions Fewer Conditions

Pressure 29.53 in
Visibility 6.0 miles
Clouds Few 700 ft
Scattered Clouds 1400 ft
Overcast 4100 ft
Windchill 49 °F
Dew Point 49 °F
Humidity 97%
Rainfall 0.33 in
Snow Depth Not available.
UV 0 out of 12
Pollen 5.10 out of 12
Air Quality Not available.
Flu Activity Local Activity
METAR KEAU 200056Z 27005KT 6SM -RA BR FEW007 SCT014 OVC041 10/09 A2952 RMK AO2 SLP998 P0004 T01000089

More Conditions Fewer Conditions

Nowcast | as of 5:35 PM CDT on April 19, 2015

Mainly light rain...with periods of occasional moderate rain...will be encountered this evening across much of west central Wisconsin. Prior to 8 PM...much of the heaviest activity will be west of a line...from Tony to Cornell to Fall Creek. This area will experience between a few hundredths of an inch...to as much as one quarter of an inch...prior to 730 PM. East of this line...look for trace to a near five hundredths of an inch.

×

10-Day Weather Forecast

Almanac

Astronomy

Apr. 19, 2015 Rise Set
Actual Time
Civil Twilight
Nautical Twilight
Astronomical Twilight
Moon
Length of Visible Light
Length of Day
Tomorrow will be .
, % of the Moon is Illuminated

Today's Extremes

State Highs State Lows

Community

WunderPhotos

Upload Photos

1,815,080 photos uploaded!

WunderBlogs® & News

Nearby

Air Quality

  Air Quality AQ Index Pollutant
Not available.

Snow Depth

Station Depth Elevation

Earthquake Activity

City Distance Mag. Time & Date
Minimum magnitude displayed is 2.5.

Coastal Water Temperatures

Place Temperature

Stations

Nearby Weather Stations

Station Location Temp. Windchill Dew Point Humidity Wind Precip. Elev Updated Type